Lidgerwood, North Dakota
Current Conditions -  °F | °C
As of 8:15 AM on Saturday 22 Nov 2014 (Local Time) from KGWR Reporting Station
Clear Clear  
Wind Chill: 18°   Ceiling: Unl
Heat Index: 30°   Visibility: 10mi
Dew Point: 27°   Wind: 17mph
Humidity: 86%   Direction: 210°SSW
Pressure: 29.62"   Gusts: NA
Location:  46.08°N, 97.15°W
Report Text: KGWR 221415Z AUTO 21015KT 10SM CLR M01/M03 A2962 RMK A01 P000
Loading
Personal Weather Stations






























Interactive Weather Map New forecast layout! Learn more

10-Day Weather Forecast

Advertisements
Track Severe Weather on mobile